Time;durP1;ratioP1;P1;durP2;ratioP2;P2;SDS_P1;SDS_P2;PMS_P1;PMS_P2;Temp;Humidity;BMP_temperature;BMP_pressure;BME280_temperature;BME280_humidity;BME280_pressure;Samples;Min_cycle;Max_cycle;Signal;HPM_P1;HPM_P2
2023/01/12 06:16:13;;;;;;;6.32;1.70;;;3.70;99.90;;;;;;7611144;19;20378;-72
2023/01/12 06:18:46;;;;;;;7.95;2.35;;;3.60;99.90;;;;;;7599398;19;20014;-72
2023/01/12 06:21:18;;;;;;;4.63;1.90;;;3.70;99.90;;;;;;7602611;19;21316;-72
2023/01/12 06:23:51;;;;;;;3.15;1.80;;;3.70;99.90;;;;;;7582968;19;20378;-71
2023/01/12 06:26:23;;;;;;;6.22;1.92;;;3.80;99.90;;;;;;7585645;19;20014;-72
2023/01/12 06:28:55;;;;;;;4.15;1.38;;;3.80;99.90;;;;;;7604799;19;20014;-72
2023/01/12 06:31:27;;;;;;;7.47;1.88;;;3.90;99.90;;;;;;7600648;19;20025;-72
2023/01/12 06:33:59;;;;;;;7.67;2.23;;;3.90;99.90;;;;;;7624992;19;20010;-71
2023/01/12 06:36:32;;;;;;;9.43;1.38;;;4.00;99.90;;;;;;7608906;19;20279;-71
2023/01/12 06:39:04;;;;;;;11.85;2.20;;;4.10;99.90;;;;;;7608760;19;20014;-70
2023/01/12 06:44:27;;;;;;;6.95;1.40;;;4.20;99.90;;;;;;7620077;19;20094;-70
2023/01/12 06:47:02;;;;;;;10.90;2.05;;;4.20;99.90;;;;;;7627485;19;20018;-70
2023/01/12 06:49:34;;;;;;;8.25;1.75;;;4.20;99.90;;;;;;7626076;19;20021;-70
2023/01/12 06:52:06;;;;;;;7.22;1.73;;;4.20;99.90;;;;;;7639832;19;20394;-70
2023/01/12 06:54:38;;;;;;;7.60;1.38;;;4.30;99.90;;;;;;7627149;19;20113;-71
2023/01/12 06:57:10;;;;;;;6.65;1.70;;;4.40;99.90;;;;;;7633335;19;20018;-71
2023/01/12 06:59:43;;;;;;;4.20;1.38;;;4.50;99.90;;;;;;7621911;19;21221;-71
2023/01/12 07:02:15;;;;;;;4.93;1.52;;;4.50;99.90;;;;;;7621086;19;20018;-71
2023/01/12 07:04:48;;;;;;;8.65;1.65;;;4.60;99.90;;;;;;7630375;19;20085;-70
2023/01/12 07:07:20;;;;;;;8.05;1.55;;;4.60;99.90;;;;;;7645195;19;20733;-71
2023/01/12 07:09:52;;;;;;;6.28;1.80;;;4.70;99.90;;;;;;7618878;19;20333;-70
2023/01/12 07:12:25;;;;;;;7.38;1.50;;;4.80;99.90;;;;;;7630098;19;20036;-71
2023/01/12 15:25:35;;;;;;;;;;;8.10;87.90;;;;;;7614238;19;20011;-71
2023/01/12 15:28:08;;;;;;;1.05;0.95;;;8.10;87.80;;;;;;7633399;19;19922;-70
2023/01/12 15:30:40;;;;;;;7.47;0.70;;;8.10;88.30;;;;;;7626340;19;20018;-70
2023/01/12 15:33:13;;;;;;;1.75;1.00;;;8.10;88.70;;;;;;7612515;19;20052;-70
2023/01/12 15:35:46;;;;;;;3.45;1.35;;;8.10;88.10;;;;;;7594215;19;21247;-70
2023/01/12 15:38:19;;;;;;;2.28;0.90;;;8.10;88.40;;;;;;7626213;19;20018;-70
2023/01/12 15:40:51;;;;;;;1.70;0.93;;;8.20;87.90;;;;;;7623289;19;20026;-71
2023/01/12 15:43:24;;;;;;;3.83;0.50;;;8.20;88.10;;;;;;7626329;19;20018;-71
2023/01/12 15:45:56;;;;;;;2.97;1.57;;;8.20;87.80;;;;;;7621599;19;20018;-70
2023/01/12 15:48:28;;;;;;;2.38;1.05;;;8.20;88.20;;;;;;7633714;19;20582;-71
2023/01/12 15:51:01;;;;;;;6.38;2.28;;;8.10;88.60;;;;;;7628802;19;20623;-73
2023/01/12 15:53:33;;;;;;;4.18;1.10;;;8.10;88.70;;;;;;7629160;19;20997;-72
2023/01/12 15:56:08;;;;;;;1.60;0.80;;;8.20;88.40;;;;;;7630462;19;20010;-72
2023/01/12 15:58:41;;;;;;;1.33;0.90;;;8.10;88.50;;;;;;7618872;19;20018;-72
2023/01/12 16:01:15;;;;;;;2.78;1.60;;;8.20;88.80;;;;;;7630040;19;20109;-69
2023/01/12 16:03:48;;;;;;;3.97;1.00;;;8.20;88.10;;;;;;7609293;19;20022;-70
2023/01/12 16:06:40;;;;;;;3.33;1.10;;;8.40;87.70;;;;;;7623045;19;20014;-68
2023/01/12 16:09:12;;;;;;;2.20;1.02;;;8.30;88.00;;;;;;7621302;19;20116;-70
2023/01/12 16:11:45;;;;;;;5.73;1.33;;;8.30;87.70;;;;;;7617226;19;20633;-70
2023/01/12 16:14:17;;;;;;;3.22;0.90;;;8.30;88.80;;;;;;7576897;19;20357;-70
2023/01/12 16:16:49;;;;;;;1.77;1.02;;;8.20;89.00;;;;;;7629861;19;20024;-70
2023/01/12 16:19:22;;;;;;;2.05;1.13;;;8.30;88.50;;;;;;7617487;19;20063;-71
2023/01/12 16:21:54;;;;;;;4.28;1.60;;;8.20;88.80;;;;;;7614033;19;20782;-69
2023/01/12 16:24:29;;;;;;;5.63;1.33;;;8.20;88.50;;;;;;7626416;19;20106;-70
2023/01/12 16:27:02;;;;;;;2.40;1.30;;;8.30;88.40;;;;;;7625531;19;20022;-69
2023/01/12 16:29:34;;;;;;;4.30;1.80;;;8.30;88.70;;;;;;7604403;19;20017;-71
2023/01/12 16:32:06;;;;;;;2.80;1.55;;;8.20;88.60;;;;;;7595758;19;20037;-71
2023/01/12 16:34:39;;;;;;;5.10;1.92;;;8.20;89.10;;;;;;7587950;19;20110;-70
2023/01/12 16:37:13;;;;;;;6.88;2.10;;;8.20;89.30;;;;;;7589809;19;20018;-70
2023/01/12 16:39:46;;;;;;;3.88;1.55;;;8.10;89.60;;;;;;7587146;19;23556;-70
2023/01/12 16:42:18;;;;;;;4.07;1.77;;;8.20;88.90;;;;;;7593984;19;20022;-67
2023/01/12 16:44:50;;;;;;;2.28;1.60;;;8.10;89.60;;;;;;7570796;19;20908;-69
2023/01/12 16:47:23;;;;;;;5.05;1.63;;;8.00;89.40;;;;;;7549236;19;20034;-67
2023/01/12 16:49:55;;;;;;;6.43;1.77;;;8.10;89.70;;;;;;7520417;19;21038;-67
2023/01/12 16:52:28;;;;;;;5.55;1.60;;;8.00;89.80;;;;;;7538898;19;20613;-68
2023/01/12 16:55:00;;;;;;;4.97;1.58;;;8.00;90.40;;;;;;7553556;19;20062;-69
2023/01/12 16:57:33;;;;;;;6.75;1.52;;;8.00;90.50;;;;;;7559147;19;20011;-69
2023/01/12 17:00:07;;;;;;;5.97;1.60;;;8.00;90.00;;;;;;7557216;19;20048;-70
2023/01/12 17:02:39;;;;;;;3.47;1.27;;;8.00;90.30;;;;;;7538323;19;20029;-70
2023/01/12 17:05:12;;;;;;;2.05;1.00;;;8.10;89.60;;;;;;7564362;19;20025;-69
2023/01/12 17:07:47;;;;;;;3.67;1.30;;;8.00;89.40;;;;;;7567527;19;20010;-68
2023/01/12 17:10:20;;;;;;;2.05;1.20;;;8.00;89.90;;;;;;7547972;19;20014;-70
2023/01/12 17:12:53;;;;;;;5.80;1.52;;;8.00;89.50;;;;;;7553803;19;20011;-69
2023/01/12 17:15:34;;;;;;;4.28;1.40;;;7.90;90.10;;;;;;7564137;19;20400;-70
2023/01/12 17:18:06;;;;;;;3.15;1.60;;;8.00;89.60;;;;;;7556894;19;20018;-69
2023/01/12 17:20:39;;;;;;;3.08;1.38;;;8.00;90.10;;;;;;7569530;19;20082;-69
2023/01/12 17:23:11;;;;;;;3.90;2.22;;;8.00;90.00;;;;;;7549881;19;20017;-69
2023/01/12 17:25:44;;;;;;;4.17;1.23;;;8.00;90.10;;;;;;7571842;19;20360;-70
2023/01/12 17:28:16;;;;;;;2.33;1.60;;;8.00;90.20;;;;;;7559104;19;20640;-69
2023/01/12 17:30:48;;;;;;;5.85;1.45;;;8.00;90.20;;;;;;7571458;19;20510;-68
2023/01/12 17:33:21;;;;;;;2.20;1.30;;;8.00;90.20;;;;;;7570355;19;20496;-68
2023/01/12 17:35:54;;;;;;;2.63;1.30;;;8.00;90.40;;;;;;7558636;19;20025;-69
2023/01/12 17:38:27;;;;;;;2.20;1.10;;;8.00;90.30;;;;;;7581773;19;20015;-72
2023/01/12 17:40:59;;;;;;;4.57;1.23;;;8.00;90.30;;;;;;7553695;19;20015;-70
2023/01/12 17:43:33;;;;;;;5.50;1.65;;;7.90;90.70;;;;;;7538941;19;20064;-68
2023/01/12 17:46:07;;;;;;;;;;;7.90;90.60;;;;;;7521526;19;20077;-70
2023/01/12 17:48:39;;;;;;;3.10;1.20;;;7.90;90.50;;;;;;7523057;19;19926;-69
2023/01/12 17:51:12;;;;;;;4.22;1.45;;;7.90;90.60;;;;;;7553763;19;20014;-69
2023/01/12 17:53:45;;;;;;;3.85;1.33;;;7.90;90.80;;;;;;7566141;19;20078;-69
2023/01/12 17:56:18;;;;;;;3.85;1.65;;;7.90;90.90;;;;;;7569500;19;20021;-69
2023/01/12 17:58:51;;;;;;;9.57;2.10;;;7.90;91.00;;;;;;7580253;19;20023;-70
2023/01/12 18:01:25;;;;;;;3.92;1.40;;;7.70;91.10;;;;;;7573446;19;21109;-69
2023/01/12 18:03:58;;;;;;;2.90;1.33;;;7.80;91.20;;;;;;7556475;19;20018;-67
2023/01/12 18:06:31;;;;;;;2.65;1.60;;;7.90;90.90;;;;;;7579064;19;21200;-69
2023/01/12 18:09:04;;;;;;;2.47;1.70;;;7.90;90.80;;;;;;7582466;19;20018;-70
2023/01/12 18:11:36;;;;;;;3.72;1.80;;;8.00;90.70;;;;;;7556286;19;20011;-70
2023/01/12 18:14:10;;;;;;;2.60;1.67;;;7.80;91.10;;;;;;7561694;19;20010;-71
2023/01/12 18:16:43;;;;;;;3.13;1.70;;;7.90;90.70;;;;;;7555069;19;20017;-70
2023/01/12 18:19:15;;;;;;;3.15;1.20;;;7.80;90.90;;;;;;7550939;19;20029;-68
2023/01/12 18:21:48;;;;;;;2.42;0.98;;;7.80;90.80;;;;;;7562439;19;20029;-69
2023/01/12 18:24:21;;;;;;;3.75;1.67;;;7.90;90.60;;;;;;7562378;19;20014;-70
2023/01/12 18:26:54;;;;;;;3.00;1.80;;;8.00;90.40;;;;;;7570125;19;20146;-70
2023/01/12 18:29:27;;;;;;;4.85;2.55;;;8.00;90.30;;;;;;7537271;19;20295;-68
2023/01/12 18:31:59;;;;;;;6.90;2.90;;;8.00;90.40;;;;;;7534836;19;20019;-70
2023/01/12 18:34:32;;;;;;;7.10;2.67;;;7.90;90.50;;;;;;7572327;19;20271;-69
2023/01/12 18:37:04;;;;;;;3.55;2.40;;;7.70;90.80;;;;;;7576568;19;20082;-69
2023/01/12 18:39:40;;;;;;;4.32;2.20;;;7.80;90.80;;;;;;7539496;19;20021;-70
2023/01/12 18:45:04;;;;;;;5.10;3.05;;;7.70;90.80;;;;;;7558818;19;20026;-69
2023/01/12 18:53:25;;;;;;;10.55;3.80;;;7.70;90.90;;;;;;7578693;19;20033;-70
2023/01/12 18:56:02;;;;;;;6.93;2.58;;;7.60;91.10;;;;;;7545623;19;20022;-69
2023/01/12 18:58:35;;;;;;;6.57;2.53;;;7.50;91.30;;;;;;7582140;19;20324;-69
2023/01/12 19:01:14;;;;;;;4.47;2.60;;;7.60;91.00;;;;;;7542200;19;20165;-68
2023/01/12 19:03:47;;;;;;;8.23;3.30;;;7.60;91.00;;;;;;7549649;19;20049;-71
2023/01/12 19:06:43;;;;;;;10.30;4.07;;;7.50;91.10;;;;;;7561496;19;20013;-69
2023/01/12 19:09:34;;;;;;;7.45;4.10;;;7.50;91.20;;;;;;7552642;19;20698;-70
2023/01/12 19:12:06;;;;;;;10.35;5.32;;;7.50;91.20;;;;;;7569097;19;20026;-69
2023/01/12 19:17:30;;;;;;;5.68;3.47;;;7.50;91.30;;;;;;7580306;19;20014;-72
